Ever Delight — 3FCB8 — position and weather

sailwx.info

Track history (hours):
 
Tides and Currents Weather Stations Pressure Air Temp Water Temp Dewpoint Dewpoint Depression Visibility Wind Speed Wind Dir Waves Ship Positions

Ever Delight

Last reported at 2016-Apr-10 14:15 UTC. Time now 2016-May-01 23:09 UTC.
Position N 40°20' W 073°41'.
Warning: this ship's position is 21 days out of date.

Type: Ship (hazmat cat D). MMSI: 351936000.

Date/timePositionNaut miles runAvg speedWind from/ knotsBaromVisibWave heightAir tempDewpointWater temp
2016-Apr-10 14:15N 40°20' W 073°41'7 9.2
2016-Apr-10 13:32N 40°25' W 073°47'10 9.8
2016-Apr-10 12:33N 40°30' W 073°58'1111.0
2016-Apr-10 11:33N 40°39' W 074°07'2 1.8
2016-Apr-10 10:34N 40°40' W 074°08'0 0.2
2016-Apr-10 09:33N 40°40' W 074°08'0 0.0
2016-Apr-10 08:33N 40°40' W 074°08'0 0.0
2016-Apr-10 07:33N 40°40' W 074°08'0 0.0
2016-Apr-10 06:33N 40°40' W 074°08'0 0.0
2016-Apr-10 05:33N 40°40' W 074°08'0 0.0
2016-Apr-10 04:33N 40°40' W 074°08'0 0.0
2016-Apr-10 03:33N 40°40' W 074°08'0 0.0
2016-Apr-10 02:33N 40°40' W 074°08'0 0.0
2016-Apr-10 01:33N 40°40' W 074°08'0 0.0
2016-Apr-10 00:34N 40°40' W 074°08'0 0.0
2016-Apr-09 23:31N 40°40' W 074°08'0 0.0
2016-Apr-09 22:31N 40°40' W 074°08'0 0.0
2016-Apr-09 21:34N 40°40' W 074°08'4 3.6
2016-Apr-09 20:34N 40°39' W 074°04'1110.7
2016-Apr-09 19:33N 40°30' W 073°56'9 8.7
2016-Apr-09 18:33N 40°25' W 073°47'20 7.9
2016-Apr-09 16:03N 40°05' W 073°44'5 8.6
2016-Apr-09 15:31N 40°00' W 073°43'8 8.4
2016-Apr-09 14:33N 39°52' W 073°42'1514.5
2016-Apr-09 13:33N 39°38' W 073°44'9115.2
2016-Apr-09 07:33N 38°14' W 074°30'10214.4
2016-Apr-09 00:29N 36°49' W 075°40'8 8.8
2016-Apr-08 23:33N 36°51' W 075°50'9 9.2
2016-Apr-08 22:33N 36°56' W 075°59'1413.2
2016-Apr-08 21:31N 37°00' W 076°15'9 9.3
2016-Apr-08 20:33N 36°53' W 076°21'0 0.3
2016-Apr-08 19:33N 36°52' W 076°21'0 0.0
2016-Apr-08 18:33N 36°52' W 076°21'0 0.0
2016-Apr-08 17:33N 36°52' W 076°21'0 0.0
2016-Apr-08 16:33N 36°52' W 076°21'0 0.0
2016-Apr-08 15:33N 36°52' W 076°21'0 0.0
2016-Apr-08 14:33N 36°52' W 076°21'0 0.0
2016-Apr-08 13:33N 36°52' W 076°21'0 0.0
2016-Apr-08 12:33N 36°52' W 076°21'0 0.0
2016-Apr-08 11:33N 36°52' W 076°21'0 0.0
2016-Apr-08 10:33N 36°52' W 076°21'3 3.2
2016-Apr-08 09:33N 36°56' W 076°20'1110.7
2016-Apr-08 08:33N 36°59' W 076°08'1010.4
2016-Apr-08 07:33N 36°55' W 075°55'10 7.5
2016-Apr-08 06:11N 36°49' W 075°45'1 0.1
2016-Apr-07 20:33N 36°49' W 075°43'9 8.6
2016-Apr-07 19:33N 36°52' W 075°53'8 7.6
2016-Apr-07 18:33N 36°58' W 075°60'6716.4
2016-Apr-07 14:26N 38°04' W 076°13'5218.0
2016-Apr-07 11:33N 38°56' W 076°23'1413.9
2016-Apr-07 10:33N 39°09' W 076°25'9 8.7
2016-Apr-07 09:33N 39°15' W 076°33'0 0.3
2016-Apr-07 08:31N 39°15' W 076°33'0 0.0
2016-Apr-07 07:31N 39°15' W 076°33'0 0.0
2016-Apr-07 06:31N 39°15' W 076°33'0 0.0
2016-Apr-07 05:28N 39°15' W 076°33'0 0.0
2016-Apr-07 04:31N 39°15' W 076°33'0 0.0
2016-Apr-07 03:31N 39°15' W 076°33'0 0.0
2016-Apr-07 02:31N 39°15' W 076°33'0 0.0
2016-Apr-07 01:31N 39°15' W 076°33'0 0.0
2016-Apr-07 00:31N 39°15' W 076°33'0 0.0
2016-Apr-06 23:33N 39°15' W 076°33'0 0.0
2016-Apr-06 22:33N 39°15' W 076°33'0 0.0
2016-Apr-06 21:30N 39°15' W 076°33'0 0.0
2016-Apr-06 20:33N 39°15' W 076°33'0 0.0
2016-Apr-06 19:33N 39°15' W 076°33'0 0.0
2016-Apr-06 18:33N 39°15' W 076°33'0 0.0
2016-Apr-06 17:33N 39°15' W 076°33'0 0.0
2016-Apr-06 16:30N 39°15' W 076°33'0 0.0
2016-Apr-06 15:33N 39°15' W 076°33'2 1.5
2016-Apr-06 14:33N 39°14' W 076°32'10 9.9
2016-Apr-06 13:33N 39°07' W 076°24'1616.0
2016-Apr-06 12:33N 38°51' W 076°24'3918.7
2016-Apr-06 10:28N 38°12' W 076°15'1718.4
2016-Apr-06 09:33N 37°56' W 076°09'5116.9
2016-Apr-06 06:32N 37°05' W 076°06'1212.5
2016-Apr-06 05:33N 36°56' W 075°56'11 8.6
2016-Apr-06 04:19N 36°49' W 075°45'  
Track history (hours):
 
Tides and Currents Weather Stations Pressure Air Temp Water Temp Dewpoint Dewpoint Depression Visibility Wind Speed Wind Dir Waves Ship Positions

Ever Delight

Last reported at 2016-Apr-10 14:15 UTC. Time now 2016-May-01 23:09 UTC.
Position N 40°20' W 073°41'.
Warning: this ship's position is 21 days out of date.

Type: Ship (hazmat cat D). MMSI: 351936000.

Date/timePositionNaut miles runAvg speedWind from/ knotsBaromVisibWave heightAir tempDewpointWater temp
2016-Apr-10 14:15N 40°20' W 073°41'7 9.2
2016-Apr-10 13:32N 40°25' W 073°47'10 9.8
2016-Apr-10 12:33N 40°30' W 073°58'1111.0
2016-Apr-10 11:33N 40°39' W 074°07'2 1.8
2016-Apr-10 10:34N 40°40' W 074°08'0 0.2
2016-Apr-10 09:33N 40°40' W 074°08'0 0.0
2016-Apr-10 08:33N 40°40' W 074°08'0 0.0
2016-Apr-10 07:33N 40°40' W 074°08'0 0.0
2016-Apr-10 06:33N 40°40' W 074°08'0 0.0
2016-Apr-10 05:33N 40°40' W 074°08'0 0.0
2016-Apr-10 04:33N 40°40' W 074°08'0 0.0
2016-Apr-10 03:33N 40°40' W 074°08'0 0.0
2016-Apr-10 02:33N 40°40' W 074°08'0 0.0
2016-Apr-10 01:33N 40°40' W 074°08'0 0.0
2016-Apr-10 00:34N 40°40' W 074°08'0 0.0
2016-Apr-09 23:31N 40°40' W 074°08'0 0.0
2016-Apr-09 22:31N 40°40' W 074°08'0 0.0
2016-Apr-09 21:34N 40°40' W 074°08'4 3.6
2016-Apr-09 20:34N 40°39' W 074°04'1110.7
2016-Apr-09 19:33N 40°30' W 073°56'9 8.7
2016-Apr-09 18:33N 40°25' W 073°47'20 7.9
2016-Apr-09 16:03N 40°05' W 073°44'5 8.6
2016-Apr-09 15:31N 40°00' W 073°43'8 8.4
2016-Apr-09 14:33N 39°52' W 073°42'1514.5
2016-Apr-09 13:33N 39°38' W 073°44'9115.2
2016-Apr-09 07:33N 38°14' W 074°30'10214.4
2016-Apr-09 00:29N 36°49' W 075°40'8 8.8
2016-Apr-08 23:33N 36°51' W 075°50'9 9.2
2016-Apr-08 22:33N 36°56' W 075°59'1413.2
2016-Apr-08 21:31N 37°00' W 076°15'9 9.3
2016-Apr-08 20:33N 36°53' W 076°21'0 0.3
2016-Apr-08 19:33N 36°52' W 076°21'0 0.0
2016-Apr-08 18:33N 36°52' W 076°21'0 0.0
2016-Apr-08 17:33N 36°52' W 076°21'0 0.0
2016-Apr-08 16:33N 36°52' W 076°21'0 0.0
2016-Apr-08 15:33N 36°52' W 076°21'0 0.0
2016-Apr-08 14:33N 36°52' W 076°21'0 0.0
2016-Apr-08 13:33N 36°52' W 076°21'0 0.0
2016-Apr-08 12:33N 36°52' W 076°21'0 0.0
2016-Apr-08 11:33N 36°52' W 076°21'0 0.0
2016-Apr-08 10:33N 36°52' W 076°21'3 3.2
2016-Apr-08 09:33N 36°56' W 076°20'1110.7
2016-Apr-08 08:33N 36°59' W 076°08'1010.4
2016-Apr-08 07:33N 36°55' W 075°55'10 7.5
2016-Apr-08 06:11N 36°49' W 075°45'1 0.1
2016-Apr-07 20:33N 36°49' W 075°43'9 8.6
2016-Apr-07 19:33N 36°52' W 075°53'8 7.6
2016-Apr-07 18:33N 36°58' W 075°60'6716.4
2016-Apr-07 14:26N 38°04' W 076°13'5218.0
2016-Apr-07 11:33N 38°56' W 076°23'1413.9
2016-Apr-07 10:33N 39°09' W 076°25'9 8.7
2016-Apr-07 09:33N 39°15' W 076°33'0 0.3
2016-Apr-07 08:31N 39°15' W 076°33'0 0.0
2016-Apr-07 07:31N 39°15' W 076°33'0 0.0
2016-Apr-07 06:31N 39°15' W 076°33'0 0.0
2016-Apr-07 05:28N 39°15' W 076°33'0 0.0
2016-Apr-07 04:31N 39°15' W 076°33'0 0.0
2016-Apr-07 03:31N 39°15' W 076°33'0 0.0
2016-Apr-07 02:31N 39°15' W 076°33'0 0.0
2016-Apr-07 01:31N 39°15' W 076°33'0 0.0
2016-Apr-07 00:31N 39°15' W 076°33'0 0.0
2016-Apr-06 23:33N 39°15' W 076°33'0 0.0
2016-Apr-06 22:33N 39°15' W 076°33'0 0.0
2016-Apr-06 21:30N 39°15' W 076°33'0 0.0
2016-Apr-06 20:33N 39°15' W 076°33'0 0.0
2016-Apr-06 19:33N 39°15' W 076°33'0 0.0
2016-Apr-06 18:33N 39°15' W 076°33'0 0.0
2016-Apr-06 17:33N 39°15' W 076°33'0 0.0
2016-Apr-06 16:30N 39°15' W 076°33'0 0.0
2016-Apr-06 15:33N 39°15' W 076°33'2 1.5
2016-Apr-06 14:33N 39°14' W 076°32'10 9.9
2016-Apr-06 13:33N 39°07' W 076°24'1616.0
2016-Apr-06 12:33N 38°51' W 076°24'3918.7
2016-Apr-06 10:28N 38°12' W 076°15'1718.4
2016-Apr-06 09:33N 37°56' W 076°09'5116.9
2016-Apr-06 06:32N 37°05' W 076°06'1212.5
2016-Apr-06 05:33N 36°56' W 075°56'11 8.6
2016-Apr-06 04:19N 36°49' W 075°45'  

Dump ship's entire track history